sensor_id;sensor_type;location;lat;lon;timestamp;pressure;altitude;pressure_sealevel;temperature;humidity
43745;BME280;29359;53.048;8.732;2023-04-23T00:01:55;100701.50;;;13.04;96.39
43745;BME280;29359;53.048;8.732;2023-04-23T00:03:58;100700.00;;;12.97;95.88
43745;BME280;29359;53.048;8.732;2023-04-23T00:06:05;100708.81;;;12.97;94.70
43745;BME280;29359;53.048;8.732;2023-04-23T00:08:09;100714.56;;;12.86;92.65
43745;BME280;29359;53.048;8.732;2023-04-23T00:10:11;100714.91;;;12.77;92.43
43745;BME280;29359;53.048;8.732;2023-04-23T00:12:13;100720.41;;;12.73;91.98
43745;BME280;29359;53.048;8.732;2023-04-23T00:14:15;100720.56;;;12.68;91.73
43745;BME280;29359;53.048;8.732;2023-04-23T00:16:18;100716.50;;;12.60;92.39
43745;BME280;29359;53.048;8.732;2023-04-23T00:18:19;100716.75;;;12.52;92.65
43745;BME280;29359;53.048;8.732;2023-04-23T00:20:21;100712.50;;;12.48;93.29
43745;BME280;29359;53.048;8.732;2023-04-23T00:22:23;100717.81;;;12.48;93.15
43745;BME280;29359;53.048;8.732;2023-04-23T00:24:24;100728.50;;;12.45;92.93
43745;BME280;29359;53.048;8.732;2023-04-23T00:26:26;100723.22;;;12.45;92.71
43745;BME280;29359;53.048;8.732;2023-04-23T00:28:27;100719.88;;;12.40;92.65
43745;BME280;29359;53.048;8.732;2023-04-23T00:30:29;100733.22;;;12.37;92.58
43745;BME280;29359;53.048;8.732;2023-04-23T00:32:31;100730.00;;;12.29;92.18
43745;BME280;29359;53.048;8.732;2023-04-23T00:34:32;100727.38;;;12.29;91.97
43745;BME280;29359;53.048;8.732;2023-04-23T00:36:34;100730.25;;;12.22;92.25
43745;BME280;29359;53.048;8.732;2023-04-23T00:38:35;100734.84;;;12.17;92.47
43745;BME280;29359;53.048;8.732;2023-04-23T00:40:37;100730.53;;;12.15;92.55
43745;BME280;29359;53.048;8.732;2023-04-23T00:42:39;100738.59;;;12.10;92.84
43745;BME280;29359;53.048;8.732;2023-04-23T00:44:41;100730.66;;;12.10;92.41
43745;BME280;29359;53.048;8.732;2023-04-23T00:46:43;100732.56;;;12.07;92.17
43745;BME280;29359;53.048;8.732;2023-04-23T00:48:46;100737.09;;;12.03;92.41
43745;BME280;29359;53.048;8.732;2023-04-23T00:50:48;100736.41;;;11.98;92.66
43745;BME280;29359;53.048;8.732;2023-04-23T00:52:49;100738.28;;;11.94;92.99
43745;BME280;29359;53.048;8.732;2023-04-23T00:54:51;100734.84;;;11.92;92.70
43745;BME280;29359;53.048;8.732;2023-04-23T00:56:53;100741.19;;;11.87;92.71
43745;BME280;29359;53.048;8.732;2023-04-23T00:58:55;100734.28;;;11.83;92.55
43745;BME280;29359;53.048;8.732;2023-04-23T01:00:57;100740.59;;;11.79;93.45
43745;BME280;29359;53.048;8.732;2023-04-23T01:02:59;100740.75;;;11.74;93.19
43745;BME280;29359;53.048;8.732;2023-04-23T01:05:03;100735.50;;;11.73;93.78
43745;BME280;29359;53.048;8.732;2023-04-23T01:07:05;100735.56;;;11.70;93.86
43745;BME280;29359;53.048;8.732;2023-04-23T01:09:08;100734.59;;;11.74;93.58
43745;BME280;29359;53.048;8.732;2023-04-23T01:11:13;100733.66;;;11.75;92.96
43745;BME280;29359;53.048;8.732;2023-04-23T01:13:15;100731.16;;;11.70;93.13
43745;BME280;29359;53.048;8.732;2023-04-23T01:15:17;100729.53;;;11.66;93.43
43745;BME280;29359;53.048;8.732;2023-04-23T01:17:19;100739.19;;;11.67;93.09
43745;BME280;29359;53.048;8.732;2023-04-23T01:19:20;100736.75;;;11.61;92.65
43745;BME280;29359;53.048;8.732;2023-04-23T01:21:22;100729.78;;;11.58;92.96
43745;BME280;29359;53.048;8.732;2023-04-23T01:23:24;100736.06;;;11.56;93.32
43745;BME280;29359;53.048;8.732;2023-04-23T01:25:27;100736.09;;;11.54;92.42
43745;BME280;29359;53.048;8.732;2023-04-23T01:27:29;100738.03;;;11.49;92.08
43745;BME280;29359;53.048;8.732;2023-04-23T01:29:31;100740.78;;;11.46;92.39
43745;BME280;29359;53.048;8.732;2023-04-23T01:31:33;100739.16;;;11.42;92.75
43745;BME280;29359;53.048;8.732;2023-04-23T01:33:35;100741.09;;;11.37;92.96
43745;BME280;29359;53.048;8.732;2023-04-23T01:35:38;100743.75;;;11.37;93.22
43745;BME280;29359;53.048;8.732;2023-04-23T01:37:41;100744.59;;;11.38;93.49
43745;BME280;29359;53.048;8.732;2023-04-23T01:39:43;100744.56;;;11.39;93.23
43745;BME280;29359;53.048;8.732;2023-04-23T01:41:46;100737.63;;;11.35;93.16
43745;BME280;29359;53.048;8.732;2023-04-23T01:43:48;100744.75;;;11.33;93.39
43745;BME280;29359;53.048;8.732;2023-04-23T01:45:50;100750.91;;;11.33;93.19
43745;BME280;29359;53.048;8.732;2023-04-23T01:47:53;100751.78;;;11.34;92.87
43745;BME280;29359;53.048;8.732;2023-04-23T01:49:54;100753.66;;;11.30;92.89
43745;BME280;29359;53.048;8.732;2023-04-23T01:51:56;100749.34;;;11.26;92.90
43745;BME280;29359;53.048;8.732;2023-04-23T01:53:57;100759.19;;;11.21;93.26
43745;BME280;29359;53.048;8.732;2023-04-23T01:55:59;100757.53;;;11.19;93.09
43745;BME280;29359;53.048;8.732;2023-04-23T01:58:01;100756.75;;;11.15;93.29
43745;BME280;29359;53.048;8.732;2023-04-23T02:00:10;100757.81;;;11.10;93.50
43745;BME280;29359;53.048;8.732;2023-04-23T02:02:13;100757.91;;;11.07;93.78
43745;BME280;29359;53.048;8.732;2023-04-23T02:04:16;100760.59;;;11.05;93.47
43745;BME280;29359;53.048;8.732;2023-04-23T02:06:18;100758.97;;;11.01;93.98
43745;BME280;29359;53.048;8.732;2023-04-23T02:08:20;100756.38;;;10.99;93.98
43745;BME280;29359;53.048;8.732;2023-04-23T02:10:21;100759.03;;;10.99;94.14
43745;BME280;29359;53.048;8.732;2023-04-23T02:12:23;100754.66;;;10.98;94.29
43745;BME280;29359;53.048;8.732;2023-04-23T02:14:25;100759.06;;;10.98;94.30
43745;BME280;29359;53.048;8.732;2023-04-23T02:16:26;100759.88;;;11.00;94.55
43745;BME280;29359;53.048;8.732;2023-04-23T02:18:29;100751.97;;;11.00;94.42
43745;BME280;29359;53.048;8.732;2023-04-23T02:20:30;100762.69;;;10.95;94.80
43745;BME280;29359;53.048;8.732;2023-04-23T02:22:32;100770.69;;;10.92;94.60
43745;BME280;29359;53.048;8.732;2023-04-23T02:24:33;100767.34;;;10.87;94.52
43745;BME280;29359;53.048;8.732;2023-04-23T02:26:35;100764.78;;;10.84;94.09
43745;BME280;29359;53.048;8.732;2023-04-23T02:28:37;100767.63;;;10.77;93.16
43745;BME280;29359;53.048;8.732;2023-04-23T02:30:39;100768.69;;;10.71;92.80
43745;BME280;29359;53.048;8.732;2023-04-23T02:32:45;100774.97;;;10.67;92.59
43745;BME280;29359;53.048;8.732;2023-04-23T02:34:47;100774.16;;;10.65;92.37
43745;BME280;29359;53.048;8.732;2023-04-23T02:36:48;100782.25;;;10.59;91.62
43745;BME280;29359;53.048;8.732;2023-04-23T02:38:49;100775.28;;;10.56;91.46
43745;BME280;29359;53.048;8.732;2023-04-23T02:40:51;100775.31;;;10.55;91.64
43745;BME280;29359;53.048;8.732;2023-04-23T02:42:53;100781.56;;;10.52;91.74
43745;BME280;29359;53.048;8.732;2023-04-23T02:44:54;100775.50;;;10.49;92.52
43745;BME280;29359;53.048;8.732;2023-04-23T02:46:56;100775.59;;;10.46;92.38
43745;BME280;29359;53.048;8.732;2023-04-23T02:48:58;100773.09;;;10.41;92.50
43745;BME280;29359;53.048;8.732;2023-04-23T02:50:59;100773.97;;;10.40;92.95
43745;BME280;29359;53.048;8.732;2023-04-23T02:53:01;100780.16;;;10.41;92.88
43745;BME280;29359;53.048;8.732;2023-04-23T02:55:02;100780.25;;;10.36;93.18
43745;BME280;29359;53.048;8.732;2023-04-23T02:57:04;100776.78;;;10.34;93.51
43745;BME280;29359;53.048;8.732;2023-04-23T02:59:07;100786.47;;;10.33;93.68
43745;BME280;29359;53.048;8.732;2023-04-23T03:01:09;100787.34;;;10.34;93.64
43745;BME280;29359;53.048;8.732;2023-04-23T03:03:11;100789.19;;;10.30;93.85
43745;BME280;29359;53.048;8.732;2023-04-23T03:05:13;100785.66;;;10.31;93.70
43745;BME280;29359;53.048;8.732;2023-04-23T03:07:14;100786.59;;;10.29;93.37
43745;BME280;29359;53.048;8.732;2023-04-23T03:09:17;100784.88;;;10.28;93.21
43745;BME280;29359;53.048;8.732;2023-04-23T03:11:19;100795.28;;;10.32;92.57
43745;BME280;29359;53.048;8.732;2023-04-23T03:13:21;100797.06;;;10.32;92.65
43745;BME280;29359;53.048;8.732;2023-04-23T03:15:23;100798.75;;;10.34;92.69
43745;BME280;29359;53.048;8.732;2023-04-23T03:17:24;100804.94;;;10.33;92.99
43745;BME280;29359;53.048;8.732;2023-04-23T03:19:26;100794.47;;;10.30;92.71
43745;BME280;29359;53.048;8.732;2023-04-23T03:21:27;100800.75;;;10.26;93.00
43745;BME280;29359;53.048;8.732;2023-04-23T03:23:29;100792.91;;;10.23;93.06
43745;BME280;29359;53.048;8.732;2023-04-23T03:25:31;100787.56;;;10.26;92.72
43745;BME280;29359;53.048;8.732;2023-04-23T03:27:33;100790.19;;;10.26;92.40
43745;BME280;29359;53.048;8.732;2023-04-23T03:29:35;100799.03;;;10.25;91.88
43745;BME280;29359;53.048;8.732;2023-04-23T03:31:36;100802.69;;;10.18;91.77
43745;BME280;29359;53.048;8.732;2023-04-23T03:33:38;100798.50;;;10.11;92.26
43745;BME280;29359;53.048;8.732;2023-04-23T03:35:39;100799.44;;;10.08;92.17
43745;BME280;29359;53.048;8.732;2023-04-23T03:37:41;100803.00;;;10.07;92.11
43745;BME280;29359;53.048;8.732;2023-04-23T03:39:42;100801.31;;;10.05;92.22
43745;BME280;29359;53.048;8.732;2023-04-23T03:41:44;100806.53;;;10.06;92.50
43745;BME280;29359;53.048;8.732;2023-04-23T03:43:46;100811.78;;;10.08;93.11
43745;BME280;29359;53.048;8.732;2023-04-23T03:45:47;100806.41;;;10.11;92.61
43745;BME280;29359;53.048;8.732;2023-04-23T03:47:49;100806.38;;;10.13;92.47
43745;BME280;29359;53.048;8.732;2023-04-23T03:49:50;100802.81;;;10.14;92.01
43745;BME280;29359;53.048;8.732;2023-04-23T03:51:52;100792.44;;;10.07;91.78
43745;BME280;29359;53.048;8.732;2023-04-23T03:53:53;100794.25;;;10.05;91.61
43745;BME280;29359;53.048;8.732;2023-04-23T03:55:55;100802.28;;;10.01;91.94
43745;BME280;29359;53.048;8.732;2023-04-23T03:57:57;100804.84;;;10.04;91.29
43745;BME280;29359;53.048;8.732;2023-04-23T04:00:03;100810.13;;;10.04;91.66
43745;BME280;29359;53.048;8.732;2023-04-23T04:02:05;100814.56;;;10.02;91.55
43745;BME280;29359;53.048;8.732;2023-04-23T04:04:07;100813.78;;;9.98;91.13
43745;BME280;29359;53.048;8.732;2023-04-23T04:06:08;100812.94;;;9.96;91.93
43745;BME280;29359;53.048;8.732;2023-04-23T04:08:10;100818.38;;;9.90;91.17
43745;BME280;29359;53.048;8.732;2023-04-23T04:10:11;100814.13;;;9.85;91.34
43745;BME280;29359;53.048;8.732;2023-04-23T04:12:13;100814.94;;;9.87;91.91
43745;BME280;29359;53.048;8.732;2023-04-23T04:14:15;100814.13;;;9.85;91.35
43745;BME280;29359;53.048;8.732;2023-04-23T04:16:16;100815.84;;;9.86;91.81
43745;BME280;29359;53.048;8.732;2023-04-23T04:18:18;100805.25;;;9.87;91.52
43745;BME280;29359;53.048;8.732;2023-04-23T04:20:20;100815.69;;;9.92;90.98
43745;BME280;29359;53.048;8.732;2023-04-23T04:22:21;100817.53;;;9.88;91.28
43745;BME280;29359;53.048;8.732;2023-04-23T04:24:23;100817.56;;;9.87;91.28
43745;BME280;29359;53.048;8.732;2023-04-23T04:26:27;100817.69;;;9.82;91.66
43745;BME280;29359;53.048;8.732;2023-04-23T04:28:29;100821.34;;;9.76;91.75
43745;BME280;29359;53.048;8.732;2023-04-23T04:30:30;100823.06;;;9.79;92.36
43745;BME280;29359;53.048;8.732;2023-04-23T04:32:32;100822.19;;;9.79;91.98
43745;BME280;29359;53.048;8.732;2023-04-23T04:34:33;100822.22;;;9.77;92.67
43745;BME280;29359;53.048;8.732;2023-04-23T04:36:36;100821.34;;;9.76;92.30
43745;BME280;29359;53.048;8.732;2023-04-23T04:38:38;100824.06;;;9.73;92.53
43745;BME280;29359;53.048;8.732;2023-04-23T04:40:39;100827.66;;;9.71;92.87
43745;BME280;29359;53.048;8.732;2023-04-23T04:42:41;100824.16;;;9.70;93.20
43745;BME280;29359;53.048;8.732;2023-04-23T04:44:42;100822.38;;;9.71;93.66
43745;BME280;29359;53.048;8.732;2023-04-23T04:46:44;100825.88;;;9.71;93.28
43745;BME280;29359;53.048;8.732;2023-04-23T04:48:46;100833.78;;;9.71;93.39
43745;BME280;29359;53.048;8.732;2023-04-23T04:50:48;100830.19;;;9.75;93.87
43745;BME280;29359;53.048;8.732;2023-04-23T04:52:49;100830.13;;;9.77;93.47
43745;BME280;29359;53.048;8.732;2023-04-23T04:54:51;100826.59;;;9.78;92.98
43745;BME280;29359;53.048;8.732;2023-04-23T04:56:52;100827.41;;;9.80;92.85
43745;BME280;29359;53.048;8.732;2023-04-23T04:58:54;100830.06;;;9.80;92.83
43745;BME280;29359;53.048;8.732;2023-04-23T05:00:58;100816.88;;;9.80;92.85
43745;BME280;29359;53.048;8.732;2023-04-23T05:02:59;100822.22;;;9.77;92.74
43745;BME280;29359;53.048;8.732;2023-04-23T05:05:02;100828.41;;;9.76;93.52
43745;BME280;29359;53.048;8.732;2023-04-23T05:07:03;100825.69;;;9.79;93.77
43745;BME280;29359;53.048;8.732;2023-04-23T05:09:05;100831.72;;;9.84;93.10
43745;BME280;29359;53.048;8.732;2023-04-23T05:11:06;100826.34;;;9.87;92.74
43745;BME280;29359;53.048;8.732;2023-04-23T05:13:08;100824.53;;;9.89;92.92
43745;BME280;29359;53.048;8.732;2023-04-23T05:15:12;100831.47;;;9.93;92.90
43745;BME280;29359;53.048;8.732;2023-04-23T05:17:13;100826.19;;;9.93;93.35
43745;BME280;29359;53.048;8.732;2023-04-23T05:19:15;100823.44;;;9.99;92.21
43745;BME280;29359;53.048;8.732;2023-04-23T05:21:16;100822.56;;;9.99;92.56
43745;BME280;29359;53.048;8.732;2023-04-23T05:23:19;100821.66;;;10.00;91.91
43745;BME280;29359;53.048;8.732;2023-04-23T05:25:21;100821.75;;;9.95;91.74
43745;BME280;29359;53.048;8.732;2023-04-23T05:27:22;100818.19;;;9.96;92.30
43745;BME280;29359;53.048;8.732;2023-04-23T05:29:24;100825.38;;;9.91;92.33
43745;BME280;29359;53.048;8.732;2023-04-23T05:31:25;100824.59;;;9.88;92.07
43745;BME280;29359;53.048;8.732;2023-04-23T05:33:29;100828.13;;;9.87;92.64
43745;BME280;29359;53.048;8.732;2023-04-23T05:35:46;100833.41;;;9.87;92.64
43745;BME280;29359;53.048;8.732;2023-04-23T05:37:48;100842.38;;;9.80;92.89
43745;BME280;29359;53.048;8.732;2023-04-23T05:39:49;100845.94;;;9.77;92.95
43745;BME280;29359;53.048;8.732;2023-04-23T05:41:51;100845.00;;;9.80;93.44
43745;BME280;29359;53.048;8.732;2023-04-23T05:43:53;100845.69;;;9.88;93.36
43745;BME280;29359;53.048;8.732;2023-04-23T05:45:54;100839.50;;;9.89;92.45
43745;BME280;29359;53.048;8.732;2023-04-23T05:47:56;100842.94;;;9.92;92.84
43745;BME280;29359;53.048;8.732;2023-04-23T05:49:58;100834.16;;;9.92;92.83
43745;BME280;29359;53.048;8.732;2023-04-23T05:52:00;100842.09;;;9.90;92.13
43745;BME280;29359;53.048;8.732;2023-04-23T05:54:03;100836.78;;;9.92;92.31
43745;BME280;29359;53.048;8.732;2023-04-23T05:56:04;100849.06;;;9.93;92.61
43745;BME280;29359;53.048;8.732;2023-04-23T05:58:06;100845.59;;;9.91;92.83
43745;BME280;29359;53.048;8.732;2023-04-23T06:00:08;100831.59;;;9.89;92.17
43745;BME280;29359;53.048;8.732;2023-04-23T06:02:12;100834.31;;;9.86;92.21
43745;BME280;29359;53.048;8.732;2023-04-23T06:04:15;100841.31;;;9.87;92.64
43745;BME280;29359;53.048;8.732;2023-04-23T06:06:16;100837.63;;;9.94;92.33
43745;BME280;29359;53.048;8.732;2023-04-23T06:08:18;100835.78;;;9.97;91.86
43745;BME280;29359;53.048;8.732;2023-04-23T06:10:20;100837.53;;;9.98;91.79
43745;BME280;29359;53.048;8.732;2023-04-23T06:12:22;100825.16;;;10.00;91.91
43745;BME280;29359;53.048;8.732;2023-04-23T06:14:23;100837.41;;;10.03;92.29
43745;BME280;29359;53.048;8.732;2023-04-23T06:16:25;100827.81;;;10.00;91.69
43745;BME280;29359;53.048;8.732;2023-04-23T06:18:26;100828.59;;;10.04;92.06
43745;BME280;29359;53.048;8.732;2023-04-23T06:20:28;100828.59;;;10.04;91.60
43745;BME280;29359;53.048;8.732;2023-04-23T06:22:30;100817.88;;;10.10;91.70
43745;BME280;29359;53.048;8.732;2023-04-23T06:24:33;100822.28;;;10.10;91.63
43745;BME280;29359;53.048;8.732;2023-04-23T06:26:34;100827.69;;;10.05;90.99
43745;BME280;29359;53.048;8.732;2023-04-23T06:28:35;100825.94;;;10.04;91.36
43745;BME280;29359;53.048;8.732;2023-04-23T06:30:37;100826.00;;;10.02;91.06
43745;BME280;29359;53.048;8.732;2023-04-23T06:32:38;100826.84;;;10.03;91.00
43745;BME280;29359;53.048;8.732;2023-04-23T06:34:40;100828.59;;;10.04;91.35
43745;BME280;29359;53.048;8.732;2023-04-23T06:36:57;100817.13;;;10.05;91.69
43745;BME280;29359;53.048;8.732;2023-04-23T06:38:59;100816.19;;;10.07;90.94
43745;BME280;29359;53.048;8.732;2023-04-23T06:41:00;100817.09;;;10.06;90.99
43745;BME280;29359;53.048;8.732;2023-04-23T06:43:03;100817.88;;;10.10;90.54
43745;BME280;29359;53.048;8.732;2023-04-23T06:45:06;100825.69;;;10.13;90.43
43745;BME280;29359;53.048;8.732;2023-04-23T06:47:07;100827.31;;;10.20;91.18
43745;BME280;29359;53.048;8.732;2023-04-23T06:49:09;100824.53;;;10.25;91.34
43745;BME280;29359;53.048;8.732;2023-04-23T06:51:11;100824.44;;;10.28;90.54
43745;BME280;29359;53.048;8.732;2023-04-23T06:53:12;100818.13;;;10.33;90.50
43745;BME280;29359;53.048;8.732;2023-04-23T06:55:14;100811.13;;;10.32;90.33
43745;BME280;29359;53.048;8.732;2023-04-23T06:57:16;100810.34;;;10.29;89.35
43745;BME280;29359;53.048;8.732;2023-04-23T06:59:17;100806.81;;;10.30;88.99
43745;BME280;29359;53.048;8.732;2023-04-23T07:01:19;100812.91;;;10.32;89.12
43745;BME280;29359;53.048;8.732;2023-04-23T07:03:21;100814.75;;;10.28;88.52
43745;BME280;29359;53.048;8.732;2023-04-23T07:05:23;100820.09;;;10.27;88.62
43745;BME280;29359;53.048;8.732;2023-04-23T07:07:24;100820.94;;;10.27;89.52
43745;BME280;29359;53.048;8.732;2023-04-23T07:09:27;100817.41;;;10.28;89.64
43745;BME280;29359;53.048;8.732;2023-04-23T07:11:29;100824.31;;;10.32;89.27
43745;BME280;29359;53.048;8.732;2023-04-23T07:13:32;100810.03;;;10.39;90.07
43745;BME280;29359;53.048;8.732;2023-04-23T07:15:33;100816.00;;;10.48;89.51
43745;BME280;29359;53.048;8.732;2023-04-23T07:17:35;100811.28;;;10.59;89.77
43745;BME280;29359;53.048;8.732;2023-04-23T07:19:37;100813.84;;;10.62;88.92
43745;BME280;29359;53.048;8.732;2023-04-23T07:21:38;100805.78;;;10.66;88.23
43745;BME280;29359;53.048;8.732;2023-04-23T07:23:40;100820.66;;;10.69;87.56
43745;BME280;29359;53.048;8.732;2023-04-23T07:25:42;100828.38;;;10.77;87.82
43745;BME280;29359;53.048;8.732;2023-04-23T07:27:43;100824.69;;;10.82;87.57
43745;BME280;29359;53.048;8.732;2023-04-23T07:29:45;100820.06;;;10.90;87.90
43745;BME280;29359;53.048;8.732;2023-04-23T07:31:46;100804.84;;;10.98;87.99
43745;BME280;29359;53.048;8.732;2023-04-23T07:33:48;100802.00;;;11.05;86.92
43745;BME280;29359;53.048;8.732;2023-04-23T07:35:50;100802.53;;;11.16;86.47
43745;BME280;29359;53.048;8.732;2023-04-23T07:37:52;100801.44;;;11.23;86.04
43745;BME280;29359;53.048;8.732;2023-04-23T07:39:56;100802.13;;;11.29;85.60
43745;BME280;29359;53.048;8.732;2023-04-23T07:41:57;100797.63;;;11.33;85.39
43745;BME280;29359;53.048;8.732;2023-04-23T07:44:00;100801.03;;;11.37;84.36
43745;BME280;29359;53.048;8.732;2023-04-23T07:46:01;100801.69;;;11.43;83.37
43745;BME280;29359;53.048;8.732;2023-04-23T07:48:03;100794.53;;;11.47;81.93
43745;BME280;29359;53.048;8.732;2023-04-23T07:50:05;100790.75;;;11.54;82.02
43745;BME280;29359;53.048;8.732;2023-04-23T07:52:07;100797.47;;;11.64;81.11
43745;BME280;29359;53.048;8.732;2023-04-23T07:54:09;100796.28;;;11.74;79.51
43745;BME280;29359;53.048;8.732;2023-04-23T07:56:11;100793.50;;;11.79;77.00
43745;BME280;29359;53.048;8.732;2023-04-23T07:58:13;100800.38;;;11.84;77.33
43745;BME280;29359;53.048;8.732;2023-04-23T08:00:14;100806.22;;;11.94;77.34
43745;BME280;29359;53.048;8.732;2023-04-23T08:02:16;100800.53;;;12.05;77.53
43745;BME280;29359;53.048;8.732;2023-04-23T08:04:18;100793.19;;;12.13;75.90
43745;BME280;29359;53.048;8.732;2023-04-23T08:06:21;100799.22;;;12.18;74.79
43745;BME280;29359;53.048;8.732;2023-04-23T08:08:23;100792.84;;;12.23;74.49
43745;BME280;29359;53.048;8.732;2023-04-23T08:10:25;100786.47;;;12.29;73.55
43745;BME280;29359;53.048;8.732;2023-04-23T08:12:27;100779.16;;;12.36;74.14
43745;BME280;29359;53.048;8.732;2023-04-23T08:14:29;100774.22;;;12.50;73.24
43745;BME280;29359;53.048;8.732;2023-04-23T08:16:30;100766.91;;;12.56;73.30
43745;BME280;29359;53.048;8.732;2023-04-23T08:18:32;100768.44;;;12.64;73.27
43745;BME280;29359;53.048;8.732;2023-04-23T08:20:34;100762.91;;;12.70;73.18
43745;BME280;29359;53.048;8.732;2023-04-23T08:22:35;100763.53;;;12.76;73.18
43745;BME280;29359;53.048;8.732;2023-04-23T08:24:37;100761.69;;;12.78;72.66
43745;BME280;29359;53.048;8.732;2023-04-23T08:26:38;100759.28;;;12.72;72.84
43745;BME280;29359;53.048;8.732;2023-04-23T08:28:40;100750.41;;;12.73;72.58
43745;BME280;29359;53.048;8.732;2023-04-23T08:30:41;100755.53;;;12.78;71.54
43745;BME280;29359;53.048;8.732;2023-04-23T08:32:43;100759.59;;;12.86;71.22
43745;BME280;29359;53.048;8.732;2023-04-23T08:34:44;100752.25;;;12.93;70.71
43745;BME280;29359;53.048;8.732;2023-04-23T08:36:45;100747.72;;;12.97;69.95
43745;BME280;29359;53.048;8.732;2023-04-23T08:38:49;100747.50;;;13.03;69.97
43745;BME280;29359;53.048;8.732;2023-04-23T08:40:56;100741.81;;;13.12;70.44
43745;BME280;29359;53.048;8.732;2023-04-23T08:43:06;100734.53;;;13.18;70.29
43745;BME280;29359;53.048;8.732;2023-04-23T08:45:10;100736.06;;;13.24;69.99
43745;BME280;29359;53.048;8.732;2023-04-23T08:47:16;100732.28;;;13.30;68.13
43745;BME280;29359;53.048;8.732;2023-04-23T08:49:18;100725.94;;;13.34;68.15
43745;BME280;29359;53.048;8.732;2023-04-23T08:51:21;100734.00;;;13.31;65.50
43745;BME280;29359;53.048;8.732;2023-04-23T08:53:26;100725.31;;;13.27;66.32
43745;BME280;29359;53.048;8.732;2023-04-23T08:55:33;100740.13;;;13.33;66.77
43745;BME280;29359;53.048;8.732;2023-04-23T08:57:37;100733.69;;;13.38;66.59
43745;BME280;29359;53.048;8.732;2023-04-23T08:59:40;100732.69;;;13.41;64.18
43745;BME280;29359;53.048;8.732;2023-04-23T09:01:42;100729.03;;;13.45;65.43
43745;BME280;29359;53.048;8.732;2023-04-23T09:03:44;100733.94;;;13.54;66.60
43745;BME280;29359;53.048;8.732;2023-04-23T09:05:47;100744.88;;;13.67;67.17
43745;BME280;29359;53.048;8.732;2023-04-23T09:07:49;100734.75;;;13.76;67.29
43745;BME280;29359;53.048;8.732;2023-04-23T09:09:50;100734.34;;;13.86;67.02
43745;BME280;29359;53.048;8.732;2023-04-23T09:11:52;100727.06;;;13.91;65.75
43745;BME280;29359;53.048;8.732;2023-04-23T09:13:55;100726.75;;;13.98;64.25
43745;BME280;29359;53.048;8.732;2023-04-23T09:15:57;100730.84;;;14.05;63.35
43745;BME280;29359;53.048;8.732;2023-04-23T09:17:59;100732.38;;;14.11;63.27
43745;BME280;29359;53.048;8.732;2023-04-23T09:20:01;100722.09;;;14.03;62.35
43745;BME280;29359;53.048;8.732;2023-04-23T09:22:03;100720.22;;;14.05;63.87
43745;BME280;29359;53.048;8.732;2023-04-23T09:24:05;100718.09;;;14.13;63.15
43745;BME280;29359;53.048;8.732;2023-04-23T09:26:06;100715.28;;;14.17;63.80
43745;BME280;29359;53.048;8.732;2023-04-23T09:28:08;100713.16;;;14.25;63.16
43745;BME280;29359;53.048;8.732;2023-04-23T09:30:11;100716.41;;;14.31;62.50
43745;BME280;29359;53.048;8.732;2023-04-23T09:32:13;100709.81;;;14.40;62.49
43745;BME280;29359;53.048;8.732;2023-04-23T09:34:16;100706.63;;;14.52;62.58
43745;BME280;29359;53.048;8.732;2023-04-23T09:36:21;100699.88;;;14.64;62.71
43745;BME280;29359;53.048;8.732;2023-04-23T09:38:24;100691.44;;;14.74;62.20
43745;BME280;29359;53.048;8.732;2023-04-23T09:40:25;100699.09;;;14.81;62.00
43745;BME280;29359;53.048;8.732;2023-04-23T09:42:27;100692.63;;;14.86;62.01
43745;BME280;29359;53.048;8.732;2023-04-23T09:44:31;100693.81;;;14.98;63.19
43745;BME280;29359;53.048;8.732;2023-04-23T09:48:41;100698.38;;;15.13;61.60
43745;BME280;29359;53.048;8.732;2023-04-23T09:50:43;100686.63;;;15.19;61.13
43745;BME280;29359;53.048;8.732;2023-04-23T09:52:53;100694.06;;;15.29;61.21
43745;BME280;29359;53.048;8.732;2023-04-23T09:54:56;100694.13;;;15.45;61.31
43745;BME280;29359;53.048;8.732;2023-04-23T09:56:59;100693.81;;;15.51;58.61
43745;BME280;29359;53.048;8.732;2023-04-23T09:59:18;100682.41;;;15.49;57.87
43745;BME280;29359;53.048;8.732;2023-04-23T10:01:29;100688.16;;;15.59;60.19
43745;BME280;29359;53.048;8.732;2023-04-23T10:03:31;100686.75;;;15.69;59.00
43745;BME280;29359;53.048;8.732;2023-04-23T10:05:37;100683.63;;;15.78;58.83
43745;BME280;29359;53.048;8.732;2023-04-23T10:08:00;100686.31;;;15.94;59.01
43745;BME280;29359;53.048;8.732;2023-04-23T10:10:03;100696.13;;;16.11;58.24
43745;BME280;29359;53.048;8.732;2023-04-23T10:12:05;100679.63;;;16.20;57.04
43745;BME280;29359;53.048;8.732;2023-04-23T10:14:20;100675.44;;;16.31;57.52
43745;BME280;29359;53.048;8.732;2023-04-23T10:16:22;100681.81;;;16.45;58.10
43745;BME280;29359;53.048;8.732;2023-04-23T10:18:36;100689.34;;;16.54;56.32
43745;BME280;29359;53.048;8.732;2023-04-23T10:20:39;100683.50;;;16.63;56.57
43745;BME280;29359;53.048;8.732;2023-04-23T10:22:43;100679.00;;;16.63;54.78
43745;BME280;29359;53.048;8.732;2023-04-23T10:24:51;100685.28;;;16.62;56.27
43745;BME280;29359;53.048;8.732;2023-04-23T10:26:55;100677.47;;;16.59;56.34
43745;BME280;29359;53.048;8.732;2023-04-23T10:28:59;100682.19;;;16.54;55.30
43745;BME280;29359;53.048;8.732;2023-04-23T10:31:02;100678.31;;;16.60;56.15
43745;BME280;29359;53.048;8.732;2023-04-23T10:33:05;100671.03;;;16.79;56.62
43745;BME280;29359;53.048;8.732;2023-04-23T10:35:19;100659.94;;;17.03;56.80
43745;BME280;29359;53.048;8.732;2023-04-23T10:37:21;100669.34;;;17.24;56.50
43745;BME280;29359;53.048;8.732;2023-04-23T10:39:24;100674.16;;;17.33;55.48
43745;BME280;29359;53.048;8.732;2023-04-23T10:41:35;100667.53;;;17.40;54.94
43745;BME280;29359;53.048;8.732;2023-04-23T10:43:38;100654.31;;;17.53;55.95
43745;BME280;29359;53.048;8.732;2023-04-23T10:45:39;100654.59;;;17.78;56.49